Time;durP1;ratioP1;P1;durP2;ratioP2;P2;SDS_P1;SDS_P2;PMS_P1;PMS_P2;Temp;Humidity;BMP_temperature;BMP_pressure;BME280_temperature;BME280_humidity;BME280_pressure;Samples;Min_cycle;Max_cycle;Signal;HPM_P1;HPM_P2
2023/01/20 11:54:07;;;;;;;0.22;0.22;;;8.30;25.00;;;;;;6118659;23;20382;-80
2023/01/20 11:56:43;;;;;;;0.30;0.30;;;8.40;26.20;;;;;;6123992;23;20374;-79
2023/01/20 11:59:48;;;;;;;0.20;0.20;;;8.60;27.80;;;;;;6125826;23;20374;-80
2023/01/20 12:02:22;;;;;;;0.30;0.30;;;8.70;28.30;;;;;;6061058;23;20456;-80
2023/01/20 12:05:15;;;;;;;0.40;0.40;;;8.60;30.90;;;;;;6095194;23;20380;-80
2023/01/20 12:07:45;;;;;;;0.40;0.40;;;8.00;33.10;;;;;;6095293;23;20446;-79
2023/01/20 12:10:28;;;;;;;0.40;0.40;;;8.10;34.20;;;;;;6096067;23;20439;-79
2023/01/20 12:13:01;;;;;;;0.50;0.50;;;8.00;33.90;;;;;;6119309;23;20677;-81
2023/01/20 12:15:33;;;;;;;0.50;0.50;;;7.60;33.70;;;;;;6122280;23;20454;-79
2023/01/20 12:18:26;;;;;;;0.50;0.50;;;7.70;34.10;;;;;;6096083;23;20372;-80
2023/01/20 12:21:00;;;;;;;0.40;0.30;;;7.50;32.90;;;;;;6117723;23;20388;-80
2023/01/20 12:23:30;;;;;;;0.30;0.30;;;7.30;33.70;;;;;;6096895;23;20405;-80
2023/01/20 12:26:01;;;;;;;0.60;0.60;;;7.10;34.10;;;;;;6118383;23;20842;-79
2023/01/20 12:28:39;;;;;;;0.50;0.50;;;6.90;34.80;;;;;;6095256;23;20431;-80
2023/01/20 12:31:10;;;;;;;1.10;0.50;;;6.90;36.00;;;;;;6117907;23;20689;-80
2023/01/20 12:33:40;;;;;;;0.85;0.68;;;6.70;36.80;;;;;;6095433;23;20376;-80
2023/01/20 12:36:28;;;;;;;1.10;1.10;;;6.70;37.40;;;;;;6095124;23;20367;-80
2023/01/20 12:39:16;;;;;;;0.70;0.70;;;6.90;37.90;;;;;;6120481;23;20459;-80
2023/01/20 12:42:04;;;;;;;1.35;0.88;;;6.80;38.60;;;;;;6118907;23;20430;-80
2023/01/20 12:44:40;;;;;;;1.30;1.20;;;6.70;39.60;;;;;;6120353;23;20438;-80
2023/01/20 12:47:07;;;;;;;2.70;2.50;;;6.80;39.80;;;;;;6119689;23;20402;-81
2023/01/20 12:49:52;;;;;;;2.90;2.63;;;6.90;40.30;;;;;;6119912;23;20419;-80
2023/01/20 12:52:37;;;;;;;0.50;0.50;;;7.10;39.80;;;;;;6119905;23;20455;-80
2023/01/20 12:55:10;;;;;;;0.40;0.40;;;6.90;39.50;;;;;;6120763;23;20933;-81
2023/01/20 12:57:55;;;;;;;0.60;0.60;;;6.80;40.10;;;;;;6120419;23;20379;-80
2023/01/20 13:01:02;;;;;;;0.57;0.57;;;6.70;40.00;;;;;;6116938;23;20906;-79
2023/01/20 13:03:44;;;;;;;0.47;0.47;;;6.90;40.20;;;;;;6118775;23;20378;-80
2023/01/20 13:06:33;;;;;;;0.63;0.40;;;6.70;40.20;;;;;;6118513;23;20438;-80
2023/01/20 13:09:50;;;;;;;0.40;0.40;;;6.70;40.10;;;;;;6096251;23;20438;-80
2023/01/20 13:12:26;;;;;;;0.40;0.40;;;6.70;40.30;;;;;;6063725;23;20390;-81
2023/01/20 13:15:16;;;;;;;0.65;0.40;;;6.90;40.30;;;;;;6119784;23;20756;-80
2023/01/20 13:18:11;;;;;;;0.75;0.50;;;6.90;39.00;;;;;;6093919;23;20399;-79
2023/01/20 13:20:41;;;;;;;0.30;0.30;;;7.30;39.50;;;;;;6089045;23;20367;-79
2023/01/20 13:23:30;;;;;;;0.50;0.50;;;7.20;39.00;;;;;;6097183;23;20427;-79
2023/01/20 13:25:59;;;;;;;1.00;0.40;;;7.20;39.00;;;;;;6096220;23;20411;-80
2023/01/20 13:28:29;;;;;;;0.40;0.40;;;7.50;38.90;;;;;;6093966;23;20407;-80
2023/01/20 13:30:57;;;;;;;0.40;0.40;;;7.40;38.20;;;;;;6095558;23;20835;-80
2023/01/20 13:33:30;;;;;;;0.40;0.40;;;7.70;38.40;;;;;;6097495;23;20387;-79
2023/01/20 13:35:58;;;;;;;0.40;0.40;;;7.70;38.20;;;;;;6120508;23;20418;-80
2023/01/20 13:38:32;;;;;;;0.40;0.40;;;7.70;37.60;;;;;;6123268;23;20372;-80
2023/01/20 13:41:02;;;;;;;1.40;1.30;;;7.80;37.70;;;;;;6097277;23;20372;-79
2023/01/20 13:43:35;;;;;;;0.60;0.60;;;8.10;37.30;;;;;;6097615;23;20753;-80
2023/01/20 13:46:02;;;;;;;0.40;0.40;;;7.90;37.20;;;;;;6096395;23;20372;-79
2023/01/20 13:48:34;;;;;;;0.40;0.40;;;8.00;37.10;;;;;;6121280;23;20367;-79
2023/01/20 13:51:25;;;;;;;0.40;0.40;;;8.10;37.30;;;;;;6095928;23;20850;-79
2023/01/20 13:53:52;;;;;;;0.73;0.40;;;8.30;36.40;;;;;;6120675;23;20384;-79
2023/01/20 13:56:33;;;;;;;0.32;0.32;;;8.50;37.00;;;;;;6121908;23;20387;-79
2023/01/20 13:59:00;;;;;;;0.40;0.40;;;8.60;37.00;;;;;;6096584;23;20899;-79
2023/01/20 14:01:27;;;;;;;0.40;0.40;;;8.50;37.60;;;;;;6122754;23;20446;-80
2023/01/20 14:04:13;;;;;;;0.40;0.40;;;8.60;36.80;;;;;;6096143;23;20383;-79
2023/01/20 14:06:51;;;;;;;0.90;0.50;;;7.90;37.20;;;;;;6096286;23;20568;-79
2023/01/20 14:09:24;;;;;;;0.40;0.40;;;8.00;38.20;;;;;;6097264;23;20375;-79
2023/01/20 14:11:53;;;;;;;0.55;0.47;;;8.20;38.00;;;;;;6095803;23;20376;-79
2023/01/20 14:14:23;;;;;;;0.50;0.40;;;8.20;37.70;;;;;;6122617;23;20383;-79
2023/01/20 14:16:50;;;;;;;0.80;0.50;;;8.30;37.60;;;;;;6121636;23;20394;-79
2023/01/20 14:19:35;;;;;;;0.40;0.40;;;8.20;37.40;;;;;;6097095;23;20755;-79
2023/01/20 14:22:16;;;;;;;0.45;0.40;;;8.40;37.40;;;;;;6095833;23;20380;-80
2023/01/20 14:24:48;;;;;;;0.40;0.40;;;8.20;35.80;;;;;;6097278;23;20768;-79
2023/01/20 14:27:30;;;;;;;0.50;0.40;;;8.20;37.00;;;;;;6098478;23;20430;-79
2023/01/20 14:30:22;;;;;;;0.40;0.40;;;8.30;37.30;;;;;;6097005;23;20376;-79
2023/01/20 14:32:51;;;;;;;0.40;0.40;;;8.40;37.20;;;;;;6096920;23;20387;-80
2023/01/20 14:35:30;;;;;;;0.50;0.50;;;8.30;37.20;;;;;;6097265;23;20378;-79
2023/01/20 14:37:58;;;;;;;0.30;0.30;;;8.40;36.70;;;;;;6095549;23;20380;-79
2023/01/20 14:40:29;;;;;;;0.40;0.38;;;8.50;37.00;;;;;;6095908;23;20674;-80
2023/01/20 14:43:18;;;;;;;0.40;0.40;;;8.30;36.20;;;;;;6093021;23;20420;-79
2023/01/20 14:45:48;;;;;;;0.40;0.40;;;7.90;36.50;;;;;;6094721;23;20383;-80
2023/01/20 14:48:15;;;;;;;0.40;0.40;;;7.90;37.20;;;;;;6096651;23;20698;-79
2023/01/20 14:51:01;;;;;;;0.50;0.50;;;8.10;37.30;;;;;;6100418;23;20938;-79
2023/01/20 14:53:28;;;;;;;0.50;0.50;;;8.30;37.20;;;;;;6120992;23;20383;-79
2023/01/20 14:56:00;;;;;;;0.40;0.37;;;8.40;36.80;;;;;;6120481;23;20807;-79
2023/01/20 14:58:30;;;;;;;0.38;0.38;;;8.40;36.40;;;;;;6096895;23;20387;-81
2023/01/20 15:01:01;;;;;;;0.40;0.40;;;8.40;35.80;;;;;;6096229;23;20384;-79
2023/01/20 15:03:29;;;;;;;0.40;0.40;;;8.40;36.50;;;;;;6096583;23;20376;-79
2023/01/20 15:05:59;;;;;;;0.40;0.40;;;8.50;36.40;;;;;;6096539;23;20379;-79
2023/01/20 15:08:32;;;;;;;0.40;0.40;;;8.50;36.60;;;;;;6097122;23;20704;-79
2023/01/20 15:11:09;;;;;;;0.70;0.40;;;8.40;35.30;;;;;;6120664;23;20430;-79
2023/01/20 15:13:38;;;;;;;0.40;0.40;;;8.40;35.80;;;;;;6121743;23;20376;-79
2023/01/20 15:16:29;;;;;;;0.43;0.43;;;8.20;35.40;;;;;;6096504;23;21891;-79
2023/01/20 15:19:27;;;;;;;0.50;0.40;;;8.20;36.30;;;;;;6120620;23;20382;-79
2023/01/20 15:22:09;;;;;;;0.50;0.40;;;8.30;36.10;;;;;;6096215;23;20392;-80
2023/01/20 15:24:36;;;;;;;0.47;0.47;;;8.30;36.10;;;;;;6097276;23;20789;-80
2023/01/20 15:27:25;;;;;;;0.50;0.50;;;8.20;35.80;;;;;;6096772;23;20403;-79
2023/01/20 15:30:19;;;;;;;0.40;0.40;;;8.10;36.30;;;;;;6096211;23;20383;-79
2023/01/20 15:32:47;;;;;;;0.40;0.40;;;8.10;36.40;;;;;;6118540;23;20383;-79
2023/01/20 15:35:18;;;;;;;0.40;0.40;;;8.20;36.80;;;;;;6122917;23;20435;-79
2023/01/20 15:37:46;;;;;;;0.30;0.30;;;8.10;37.00;;;;;;6097105;23;20383;-79
2023/01/20 15:40:18;;;;;;;1.10;0.40;;;8.10;37.30;;;;;;6096194;23;20368;-80
2023/01/20 15:42:47;;;;;;;1.30;0.50;;;8.10;36.70;;;;;;6097014;23;20379;-79
2023/01/20 15:45:16;;;;;;;0.80;0.40;;;7.90;37.60;;;;;;6095783;23;20397;-80
2023/01/20 15:47:45;;;;;;;1.00;0.43;;;8.00;38.20;;;;;;6096961;23;20399;-79
2023/01/20 15:50:20;;;;;;;1.17;0.38;;;8.00;38.60;;;;;;6096179;23;20372;-79
2023/01/20 15:52:48;;;;;;;0.63;0.40;;;7.90;38.40;;;;;;6122388;23;20379;-79
2023/01/20 15:55:17;;;;;;;0.80;0.40;;;7.60;38.20;;;;;;6095791;23;20406;-80
2023/01/20 15:57:48;;;;;;;1.02;0.50;;;7.50;38.70;;;;;;6096754;23;20778;-79
2023/01/20 16:00:21;;;;;;;1.10;0.40;;;7.40;38.40;;;;;;6093705;23;20371;-79
2023/01/20 16:02:48;;;;;;;0.50;0.50;;;7.10;40.00;;;;;;6096134;23;20387;-79
2023/01/20 16:05:15;;;;;;;0.47;0.40;;;6.90;40.20;;;;;;6095264;23;20447;-79
2023/01/20 16:07:46;;;;;;;0.50;0.40;;;6.70;41.10;;;;;;6096129;23;20392;-79
2023/01/20 16:10:17;;;;;;;1.00;0.50;;;6.60;41.40;;;;;;6094978;23;20380;-80
2023/01/20 16:12:45;;;;;;;0.85;0.50;;;6.50;41.80;;;;;;6095999;23;20375;-79
2023/01/20 16:15:15;;;;;;;1.08;0.40;;;6.30;42.10;;;;;;6120307;23;20384;-79
2023/01/20 16:17:41;;;;;;;0.53;0.50;;;6.00;43.70;;;;;;6096413;23;20451;-79
2023/01/20 16:20:18;;;;;;;0.57;0.57;;;5.60;43.20;;;;;;6095273;23;20411;-79
2023/01/20 16:22:45;;;;;;;0.70;0.70;;;5.50;44.30;;;;;;6120921;23;20464;-79
2023/01/20 16:25:12;;;;;;;1.10;1.00;;;5.40;44.60;;;;;;6095323;23;20375;-78
2023/01/20 16:27:38;;;;;;;1.08;0.98;;;5.30;44.70;;;;;;6096825;23;20434;-79
2023/01/20 16:30:06;;;;;;;1.15;1.10;;;5.20;44.80;;;;;;6119837;23;20383;-79
2023/01/20 16:32:33;;;;;;;1.02;1.02;;;5.00;45.20;;;;;;6095768;23;20372;-79
2023/01/20 16:35:00;;;;;;;0.70;0.60;;;4.80;45.70;;;;;;6095197;23;20372;-79
2023/01/20 16:37:27;;;;;;;1.20;0.60;;;4.70;46.20;;;;;;6122046;23;20383;-79
2023/01/20 16:39:54;;;;;;;0.70;0.60;;;4.30;47.00;;;;;;6121563;23;20384;-79
2023/01/20 16:42:20;;;;;;;1.00;0.70;;;4.00;47.90;;;;;;6121343;23;20375;-79
2023/01/20 16:44:47;;;;;;;0.75;0.75;;;3.90;48.10;;;;;;6120060;23;20400;-79
2023/01/20 16:47:14;;;;;;;0.90;0.90;;;3.80;48.60;;;;;;6119422;23;20423;-79
2023/01/20 16:49:41;;;;;;;1.08;1.00;;;3.50;49.20;;;;;;6095377;23;20466;-79
2023/01/20 16:52:09;;;;;;;1.00;0.90;;;3.30;49.50;;;;;;6119567;23;20412;-78
2023/01/20 16:54:36;;;;;;;1.00;1.00;;;3.10;49.90;;;;;;6095534;23;20412;-79
2023/01/20 16:57:03;;;;;;;1.60;1.35;;;2.90;50.50;;;;;;6120714;23;20376;-79
2023/01/20 16:59:30;;;;;;;1.35;1.23;;;2.70;51.20;;;;;;6122581;23;20407;-79
2023/01/20 17:02:00;;;;;;;2.60;1.98;;;2.70;51.40;;;;;;6097473;23;20384;-80
2023/01/20 17:04:28;;;;;;;1.80;1.40;;;2.20;53.00;;;;;;6096850;23;20406;-79
2023/01/20 17:06:55;;;;;;;2.50;1.70;;;2.20;53.30;;;;;;6098213;23;20463;-79
2023/01/20 17:09:22;;;;;;;5.60;1.10;;;2.00;54.00;;;;;;6097500;23;20384;-78
2023/01/20 17:11:48;;;;;;;1.50;1.00;;;1.90;54.10;;;;;;6123538;23;20467;-79
2023/01/20 17:14:15;;;;;;;2.30;1.15;;;1.90;54.10;;;;;;6121649;23;20394;-78
2023/01/20 17:16:42;;;;;;;1.48;1.00;;;1.80;54.50;;;;;;6097865;23;20394;-79
2023/01/20 17:19:09;;;;;;;1.40;1.02;;;1.60;54.70;;;;;;6096886;23;20375;-79
2023/01/20 17:21:38;;;;;;;1.70;1.30;;;1.60;54.60;;;;;;6098530;23;20388;-79
2023/01/20 17:24:05;;;;;;;2.20;1.00;;;1.50;55.00;;;;;;6096943;23;20685;-79
2023/01/20 17:26:33;;;;;;;1.83;1.13;;;1.50;55.30;;;;;;6098920;23;20737;-79
2023/01/20 17:29:02;;;;;;;3.30;1.50;;;1.40;55.30;;;;;;6098012;23;20426;-80
2023/01/20 17:31:33;;;;;;;1.47;1.10;;;1.30;55.70;;;;;;6097928;23;20379;-79
2023/01/20 17:34:00;;;;;;;1.02;0.90;;;1.20;56.20;;;;;;6098566;23;20435;-79
2023/01/20 17:36:28;;;;;;;0.40;0.40;;;1.10;53.80;;;;;;6097570;23;20367;-79
2023/01/20 17:38:56;;;;;;;0.40;0.40;;;1.50;39.50;;;;;;6123974;23;20384;-80
2023/01/20 17:41:23;;;;;;;0.33;0.33;;;2.10;34.70;;;;;;6097396;23;20469;-79
2023/01/20 17:43:50;;;;;;;0.50;0.50;;;2.60;32.50;;;;;;6098297;23;20496;-79
2023/01/20 17:46:21;;;;;;;0.40;0.40;;;3.10;30.30;;;;;;6096629;23;20400;-78
2023/01/20 17:48:48;;;;;;;0.40;0.40;;;3.50;29.10;;;;;;6098356;23;20376;-80
2023/01/20 17:51:21;;;;;;;0.65;0.40;;;3.90;28.00;;;;;;6097210;23;20376;-79
2023/01/20 17:53:49;;;;;;;0.57;0.30;;;4.10;27.40;;;;;;6098422;23;20376;-80
2023/01/20 17:56:17;;;;;;;0.30;0.30;;;4.40;27.10;;;;;;6097110;23;20384;-79
2023/01/20 17:58:45;;;;;;;0.30;0.30;;;4.50;27.20;;;;;;6098302;23;20430;-79
2023/01/20 18:01:18;;;;;;;0.30;0.30;;;4.50;27.10;;;;;;6097653;23;20380;-79
2023/01/20 18:03:48;;;;;;;0.30;0.30;;;4.70;25.80;;;;;;6097686;23;20783;-79
2023/01/20 18:06:16;;;;;;;0.30;0.30;;;4.90;25.30;;;;;;6097325;23;20697;-79
2023/01/20 18:08:48;;;;;;;0.30;0.30;;;5.00;25.30;;;;;;6122679;23;20368;-79
2023/01/20 18:11:15;;;;;;;0.28;0.28;;;5.10;25.30;;;;;;6097602;23;20380;-79
2023/01/20 18:13:47;;;;;;;0.30;0.30;;;5.10;25.20;;;;;;6097775;23;20395;-79
2023/01/20 18:16:16;;;;;;;0.20;0.20;;;5.10;24.70;;;;;;6097061;23;20380;-79
2023/01/20 18:18:44;;;;;;;0.20;0.20;;;5.10;24.80;;;;;;6097520;23;20745;-80
2023/01/20 18:21:20;;;;;;;0.40;0.30;;;5.20;24.20;;;;;;6122808;23;20443;-79
2023/01/20 18:23:48;;;;;;;0.30;0.30;;;5.30;24.10;;;;;;6097433;23;20383;-79
2023/01/20 18:26:18;;;;;;;0.20;0.20;;;5.30;24.20;;;;;;6097026;23;20383;-80
2023/01/20 18:28:47;;;;;;;0.20;0.20;;;5.40;23.80;;;;;;6098079;23;20762;-79
2023/01/20 18:31:19;;;;;;;0.30;0.30;;;5.40;24.20;;;;;;6122524;23;20724;-79
2023/01/20 18:33:51;;;;;;;0.20;0.20;;;5.40;24.30;;;;;;6097141;23;20384;-80
2023/01/20 18:36:43;;;;;;;0.30;0.30;;;5.30;24.20;;;;;;6122263;23;20379;-79
2023/01/20 18:39:15;;;;;;;0.30;0.30;;;5.30;24.80;;;;;;6096641;23;20387;-79
2023/01/20 18:41:43;;;;;;;0.20;0.20;;;5.20;24.30;;;;;;6097573;23;20431;-79
2023/01/20 18:44:10;;;;;;;0.20;0.20;;;5.20;24.10;;;;;;6096919;23;20384;-79
2023/01/20 18:46:37;;;;;;;0.30;0.30;;;5.20;24.30;;;;;;6097702;23;20367;-79
2023/01/20 18:49:05;;;;;;;0.30;0.30;;;5.30;24.20;;;;;;6097641;23;20372;-79
2023/01/20 18:51:35;;;;;;;0.20;0.20;;;5.30;24.10;;;;;;6122834;23;20379;-80
2023/01/20 18:54:05;;;;;;;0.20;0.20;;;5.30;23.90;;;;;;6092300;23;20453;-79
2023/01/20 18:56:32;;;;;;;0.20;0.20;;;5.30;24.20;;;;;;6091959;23;20369;-80
2023/01/20 18:59:01;;;;;;;0.30;0.30;;;5.30;24.40;;;;;;6092342;23;20386;-79
2023/01/20 19:01:32;;;;;;;0.30;0.30;;;5.20;24.60;;;;;;6116762;23;20397;-79
2023/01/20 19:04:00;;;;;;;0.50;0.20;;;5.10;24.40;;;;;;6092146;23;20777;-79
2023/01/20 19:06:30;;;;;;;0.30;0.30;;;5.10;24.70;;;;;;6092127;23;20671;-79
2023/01/20 19:08:58;;;;;;;0.30;0.30;;;5.00;24.80;;;;;;6093384;23;20789;-79
2023/01/20 19:11:28;;;;;;;0.20;0.20;;;5.00;24.50;;;;;;6092015;23;20381;-79
2023/01/20 19:13:55;;;;;;;0.30;0.30;;;5.10;24.40;;;;;;6092451;23;20388;-79
2023/01/20 19:16:25;;;;;;;0.20;0.20;;;5.00;24.40;;;;;;6091746;23;20441;-79
2023/01/20 19:18:54;;;;;;;0.30;0.30;;;5.20;24.10;;;;;;6092313;23;20381;-80
2023/01/20 19:21:22;;;;;;;0.30;0.30;;;5.20;24.10;;;;;;6091043;23;20461;-79
2023/01/20 19:23:51;;;;;;;0.20;0.20;;;5.30;24.20;;;;;;6092254;23;20763;-79
2023/01/20 19:26:19;;;;;;;0.20;0.20;;;5.20;24.20;;;;;;6090673;23;20437;-80
2023/01/20 19:28:48;;;;;;;0.20;0.20;;;5.20;24.10;;;;;;6091644;23;20804;-80
2023/01/20 19:31:17;;;;;;;0.30;0.30;;;5.20;24.40;;;;;;6091404;23;20386;-80
2023/01/20 19:33:45;;;;;;;0.20;0.20;;;5.20;24.20;;;;;;6091599;23;20452;-80
2023/01/20 19:36:14;;;;;;;0.20;0.20;;;5.20;24.10;;;;;;6092634;23;20687;-80
2023/01/20 19:38:41;;;;;;;0.20;0.20;;;5.20;24.40;;;;;;6091001;23;20405;-79
2023/01/20 19:41:16;;;;;;;0.20;0.20;;;5.20;24.30;;;;;;6091762;23;20404;-81
2023/01/20 19:43:44;;;;;;;0.30;0.30;;;5.20;24.60;;;;;;6092076;23;20385;-79
2023/01/20 19:46:22;;;;;;;0.30;0.30;;;5.20;24.60;;;;;;6091041;23;20409;-79
2023/01/20 19:48:51;;;;;;;0.20;0.20;;;5.10;24.70;;;;;;6088421;23;20773;-79
2023/01/20 19:51:18;;;;;;;0.20;0.20;;;5.10;24.90;;;;;;6090626;23;20440;-80
2023/01/20 19:53:47;;;;;;;0.20;0.20;;;5.00;24.90;;;;;;6089683;23;20486;-80
2023/01/20 19:56:16;;;;;;;0.20;0.20;;;5.00;25.20;;;;;;6091014;23;20767;-79
2023/01/20 19:58:46;;;;;;;0.30;0.20;;;5.00;24.70;;;;;;6090436;23;20424;-79
2023/01/20 20:01:16;;;;;;;0.20;0.20;;;4.90;25.10;;;;;;6091756;23;20427;-80
2023/01/20 20:03:43;;;;;;;0.20;0.20;;;4.80;25.10;;;;;;6091610;23;20719;-80
2023/01/20 20:06:30;;;;;;;3.50;0.30;;;4.90;25.10;;;;;;6091791;23;20380;-80
2023/01/20 20:08:59;;;;;;;0.30;0.30;;;4.80;25.40;;;;;;6088535;23;20405;-80
2023/01/20 20:11:27;;;;;;;0.35;0.20;;;4.70;25.70;;;;;;6091784;23;20846;-80
2023/01/20 20:13:56;;;;;;;0.20;0.20;;;4.60;25.70;;;;;;6088489;23;20767;-80
2023/01/20 20:16:25;;;;;;;0.30;0.30;;;4.60;25.90;;;;;;6090567;23;20722;-80
2023/01/20 20:18:53;;;;;;;0.30;0.30;;;4.60;25.80;;;;;;6090370;23;20377;-80
2023/01/20 20:21:20;;;;;;;0.20;0.20;;;4.60;25.70;;;;;;6091152;23;20917;-79
2023/01/20 20:23:51;;;;;;;0.30;0.30;;;4.50;25.80;;;;;;6090368;23;20489;-79
2023/01/20 20:26:21;;;;;;;0.60;0.30;;;4.50;26.10;;;;;;6092434;23;20382;-80
2023/01/20 20:28:51;;;;;;;0.30;0.30;;;4.40;26.10;;;;;;6090944;23;20381;-80
2023/01/20 20:31:20;;;;;;;0.30;0.30;;;4.40;26.10;;;;;;6090820;23;20385;-80
2023/01/20 20:33:48;;;;;;;0.30;0.30;;;4.40;26.30;;;;;;6090536;23;20384;-79
2023/01/20 20:36:15;;;;;;;0.30;0.30;;;4.30;26.20;;;;;;6090853;23;20750;-80
2023/01/20 20:38:45;;;;;;;0.30;0.30;;;4.30;26.40;;;;;;6091655;23;20437;-81
2023/01/20 20:41:16;;;;;;;0.52;0.40;;;4.20;26.40;;;;;;6091475;23;20436;-80
2023/01/20 20:43:43;;;;;;;0.30;0.30;;;4.30;26.70;;;;;;6091551;23;20413;-80
2023/01/20 20:46:13;;;;;;;0.30;0.30;;;4.30;26.30;;;;;;6091434;23;20377;-80
2023/01/20 20:48:40;;;;;;;0.30;0.30;;;4.20;26.40;;;;;;6090882;23;20428;-80
2023/01/20 20:51:18;;;;;;;0.30;0.30;;;4.30;26.60;;;;;;6091156;23;20373;-79
2023/01/20 20:53:45;;;;;;;0.30;0.30;;;4.20;26.60;;;;;;6097649;23;20467;-79
2023/01/20 20:56:14;;;;;;;0.30;0.30;;;4.30;26.50;;;;;;6121092;23;20422;-79
2023/01/20 20:58:42;;;;;;;0.30;0.30;;;4.30;26.40;;;;;;6095499;23;20752;-79
2023/01/20 21:01:27;;;;;;;0.30;0.30;;;4.20;26.70;;;;;;6100571;23;20454;-79
2023/01/20 21:03:56;;;;;;;0.30;0.30;;;4.30;26.70;;;;;;6094625;23;20449;-79
2023/01/20 21:06:23;;;;;;;0.30;0.30;;;4.20;26.80;;;;;;6096727;23;20379;-79
2023/01/20 21:08:51;;;;;;;0.30;0.30;;;4.10;27.10;;;;;;6093722;23;20871;-78
2023/01/20 21:11:19;;;;;;;0.30;0.30;;;4.00;28.00;;;;;;6096589;23;20393;-79
2023/01/20 21:13:49;;;;;;;0.30;0.30;;;4.00;27.10;;;;;;6094995;23;20382;-79
2023/01/20 21:16:20;;;;;;;0.30;0.30;;;4.00;27.30;;;;;;6096891;23;20380;-78
2023/01/20 21:18:49;;;;;;;0.30;0.30;;;4.00;27.40;;;;;;6095903;23;20454;-79
2023/01/20 21:21:16;;;;;;;0.30;0.30;;;4.00;27.10;;;;;;6096149;23;20380;-79
2023/01/20 21:23:47;;;;;;;0.20;0.20;;;4.10;27.00;;;;;;6095504;23;20682;-79
2023/01/20 21:26:14;;;;;;;0.30;0.30;;;4.10;27.10;;;;;;6096770;23;20372;-79
2023/01/20 21:28:41;;;;;;;0.20;0.20;;;4.00;27.10;;;;;;6120825;23;20431;-79
2023/01/20 21:31:10;;;;;;;0.30;0.30;;;4.10;26.90;;;;;;6095508;23;20434;-80
2023/01/20 21:33:37;;;;;;;0.30;0.30;;;4.20;27.00;;;;;;6095910;23;20375;-79
2023/01/20 21:36:07;;;;;;;0.30;0.30;;;4.10;27.30;;;;;;6093185;23;20422;-79
2023/01/20 21:38:36;;;;;;;0.28;0.28;;;4.00;27.30;;;;;;6094885;23;20813;-78
2023/01/20 21:41:08;;;;;;;0.30;0.30;;;4.00;27.30;;;;;;6094518;23;20380;-80
2023/01/20 21:46:28;;;;;;;0.30;0.30;;;3.90;27.40;;;;;;6121637;23;20376;-80
2023/01/20 21:54:31;;;;;;;0.40;0.40;;;4.00;27.20;;;;;;6120592;23;20712;-80
2023/01/20 21:56:59;;;;;;;0.40;0.40;;;4.10;27.20;;;;;;6097189;23;20756;-80
2023/01/20 21:59:26;;;;;;;0.32;0.32;;;4.00;27.40;;;;;;6095454;23;20698;-80
2023/01/20 22:01:53;;;;;;;0.30;0.30;;;4.00;27.10;;;;;;6097714;23;20690;-80
2023/01/20 22:04:20;;;;;;;0.30;0.30;;;4.00;27.40;;;;;;6095670;23;20414;-80
2023/01/20 22:06:47;;;;;;;0.30;0.30;;;4.00;27.30;;;;;;6096193;23;20396;-80
2023/01/20 22:09:14;;;;;;;0.20;0.20;;;4.00;27.60;;;;;;6095977;23;20376;-78
2023/01/20 22:11:41;;;;;;;0.20;0.20;;;3.90;27.60;;;;;;6096161;23;20415;-81
2023/01/20 22:14:09;;;;;;;0.30;0.30;;;3.90;27.60;;;;;;6123120;23;20407;-81
2023/01/20 22:16:36;;;;;;;0.30;0.30;;;3.80;28.00;;;;;;6097010;23;20460;-80
2023/01/20 22:19:03;;;;;;;0.30;0.30;;;3.70;27.80;;;;;;6097234;23;20463;-79
2023/01/20 22:21:31;;;;;;;0.30;0.30;;;3.70;27.60;;;;;;6095787;23;20371;-80
2023/01/20 22:24:00;;;;;;;0.30;0.30;;;3.80;27.60;;;;;;6096277;23;20779;-79
2023/01/20 22:26:27;;;;;;;0.30;0.30;;;3.80;27.60;;;;;;6096267;23;20372;-80
2023/01/20 22:28:54;;;;;;;0.30;0.30;;;3.90;27.70;;;;;;6123357;23;20398;-80
2023/01/20 22:31:22;;;;;;;0.30;0.30;;;3.80;27.70;;;;;;6096684;23;21145;-80
2023/01/20 22:33:54;;;;;;;0.30;0.30;;;3.80;27.70;;;;;;6098139;23;20371;-79
2023/01/20 22:36:22;;;;;;;0.30;0.30;;;3.80;27.70;;;;;;6121717;23;20388;-79
2023/01/20 22:38:51;;;;;;;0.30;0.30;;;3.80;27.80;;;;;;6096449;23;20376;-79
2023/01/20 22:41:19;;;;;;;0.30;0.30;;;3.80;27.90;;;;;;6119079;23;20438;-79
2023/01/20 22:43:46;;;;;;;0.30;0.30;;;3.80;27.70;;;;;;6096108;23;20380;-79
2023/01/20 22:46:16;;;;;;;0.22;0.22;;;3.70;28.10;;;;;;6096786;23;20459;-79
2023/01/20 22:48:43;;;;;;;0.28;0.28;;;3.70;27.90;;;;;;6097085;23;20379;-79
2023/01/20 22:51:21;;;;;;;0.30;0.30;;;3.70;28.00;;;;;;6097569;23;20386;-79
2023/01/20 22:53:48;;;;;;;0.30;0.30;;;3.70;28.20;;;;;;6120483;23;20380;-77
2023/01/20 22:56:21;;;;;;;0.30;0.30;;;3.70;28.00;;;;;;6121467;23;20836;-79
2023/01/20 22:58:47;;;;;;;0.30;0.30;;;3.70;28.10;;;;;;6095981;23;20447;-79
2023/01/20 23:01:25;;;;;;;0.30;0.30;;;3.60;28.00;;;;;;6097738;23;20387;-79
2023/01/20 23:03:57;;;;;;;0.20;0.20;;;3.60;28.00;;;;;;6118753;23;20384;-79
2023/01/20 23:06:26;;;;;;;0.30;0.30;;;3.60;28.20;;;;;;6096822;23;20773;-80
2023/01/20 23:08:53;;;;;;;0.30;0.30;;;3.60;28.10;;;;;;6121375;23;20384;-79
2023/01/20 23:11:22;;;;;;;0.30;0.30;;;3.60;28.40;;;;;;6096940;23;20379;-79
2023/01/20 23:13:50;;;;;;;0.30;0.30;;;3.50;28.60;;;;;;6094342;23;20756;-79
2023/01/20 23:16:20;;;;;;;0.22;0.22;;;3.50;28.60;;;;;;6095366;23;20383;-79
2023/01/20 23:18:49;;;;;;;0.30;0.30;;;3.50;28.70;;;;;;6095684;23;20460;-79
2023/01/20 23:21:16;;;;;;;0.28;0.28;;;3.40;28.80;;;;;;6097051;23;20411;-79
2023/01/20 23:23:43;;;;;;;0.40;0.30;;;3.40;28.70;;;;;;6095764;23;20394;-79
2023/01/20 23:26:16;;;;;;;0.30;0.30;;;3.40;29.60;;;;;;6093922;23;20407;-79
2023/01/20 23:28:45;;;;;;;0.30;0.30;;;3.50;28.60;;;;;;6094505;23;20383;-79
2023/01/20 23:31:15;;;;;;;0.30;0.30;;;3.60;28.50;;;;;;6097486;23;20689;-79
2023/01/20 23:33:43;;;;;;;0.20;0.20;;;3.60;28.60;;;;;;6094717;23;20410;-79
2023/01/20 23:36:18;;;;;;;0.30;0.30;;;3.50;28.60;;;;;;6096836;23;20383;-79
2023/01/20 23:38:46;;;;;;;0.20;0.20;;;3.50;28.60;;;;;;6095849;23;20404;-80
2023/01/20 23:41:13;;;;;;;0.30;0.30;;;3.50;28.60;;;;;;6096695;23;20396;-78
2023/01/20 23:43:41;;;;;;;0.50;0.30;;;3.50;28.60;;;;;;6095816;23;20390;-79
2023/01/20 23:46:09;;;;;;;0.30;0.30;;;3.60;28.40;;;;;;6096280;23;20414;-79
2023/01/20 23:48:36;;;;;;;0.30;0.30;;;3.50;28.60;;;;;;6051375;23;20427;-79
2023/01/20 23:51:05;;;;;;;0.30;0.30;;;3.50;28.50;;;;;;6119052;23;20360;-79
2023/01/20 23:53:35;;;;;;;0.20;0.20;;;3.50;28.50;;;;;;6096602;23;20376;-79
2023/01/20 23:56:05;;;;;;;0.30;0.30;;;3.40;28.60;;;;;;6120136;23;20482;-79
2023/01/20 23:58:32;;;;;;;0.30;0.30;;;3.40;29.10;;;;;;6096588;23;20379;-79
